sensor_id;sensor_type;location;lat;lon;timestamp;temperature;humidity
18998;DHT22;9632;51.018;4.284;2022-09-24T00:03:37;16.20;99.90
18998;DHT22;9632;51.018;4.284;2022-09-24T00:06:03;16.20;99.90
18998;DHT22;9632;51.018;4.284;2022-09-24T00:08:29;16.20;99.90
18998;DHT22;9632;51.018;4.284;2022-09-24T00:10:55;16.20;99.90
18998;DHT22;9632;51.018;4.284;2022-09-24T00:13:22;16.10;99.90
18998;DHT22;9632;51.018;4.284;2022-09-24T00:15:49;16.10;99.90
18998;DHT22;9632;51.018;4.284;2022-09-24T00:18:16;16.10;99.90
18998;DHT22;9632;51.018;4.284;2022-09-24T00:20:43;16.10;99.90
18998;DHT22;9632;51.018;4.284;2022-09-24T00:23:10;16.10;99.90
18998;DHT22;9632;51.018;4.284;2022-09-24T00:25:40;16.00;99.90
18998;DHT22;9632;51.018;4.284;2022-09-24T00:28:24;16.00;99.90
18998;DHT22;9632;51.018;4.284;2022-09-24T00:30:50;16.00;99.90
18998;DHT22;9632;51.018;4.284;2022-09-24T00:33:16;16.00;99.90
18998;DHT22;9632;51.018;4.284;2022-09-24T00:35:42;16.00;99.90
18998;DHT22;9632;51.018;4.284;2022-09-24T00:38:08;15.90;99.90
18998;DHT22;9632;51.018;4.284;2022-09-24T00:40:36;16.00;99.90
18998;DHT22;9632;51.018;4.284;2022-09-24T00:43:24;16.00;99.90
18998;DHT22;9632;51.018;4.284;2022-09-24T00:45:51;16.00;99.90
18998;DHT22;9632;51.018;4.284;2022-09-24T00:48:19;16.00;99.90
18998;DHT22;9632;51.018;4.284;2022-09-24T00:50:45;16.00;99.90
18998;DHT22;9632;51.018;4.284;2022-09-24T00:53:17;16.00;99.90
18998;DHT22;9632;51.018;4.284;2022-09-24T00:55:48;16.00;99.90
18998;DHT22;9632;51.018;4.284;2022-09-24T00:58:15;16.00;99.90
18998;DHT22;9632;51.018;4.284;2022-09-24T01:00:41;16.00;99.90
18998;DHT22;9632;51.018;4.284;2022-09-24T01:03:19;16.00;99.90
18998;DHT22;9632;51.018;4.284;2022-09-24T01:05:46;16.00;99.90
18998;DHT22;9632;51.018;4.284;2022-09-24T01:08:13;15.90;99.90
18998;DHT22;9632;51.018;4.284;2022-09-24T01:16:46;15.90;99.90
18998;DHT22;9632;51.018;4.284;2022-09-24T01:22:03;15.90;99.90
18998;DHT22;9632;51.018;4.284;2022-09-24T01:24:49;15.90;99.90
18998;DHT22;9632;51.018;4.284;2022-09-24T01:32:42;15.80;99.90
18998;DHT22;9632;51.018;4.284;2022-09-24T01:35:41;15.80;99.90
18998;DHT22;9632;51.018;4.284;2022-09-24T01:38:24;15.80;99.90
18998;DHT22;9632;51.018;4.284;2022-09-24T01:40:50;15.90;99.90
18998;DHT22;9632;51.018;4.284;2022-09-24T01:43:21;15.90;99.90
18998;DHT22;9632;51.018;4.284;2022-09-24T01:45:48;15.80;99.90
18998;DHT22;9632;51.018;4.284;2022-09-24T01:48:14;15.90;99.90
18998;DHT22;9632;51.018;4.284;2022-09-24T01:50:57;15.90;99.90
18998;DHT22;9632;51.018;4.284;2022-09-24T01:53:44;15.90;99.90
18998;DHT22;9632;51.018;4.284;2022-09-24T01:56:22;15.90;99.90
18998;DHT22;9632;51.018;4.284;2022-09-24T01:58:53;15.90;99.90
18998;DHT22;9632;51.018;4.284;2022-09-24T02:01:37;15.90;99.90
18998;DHT22;9632;51.018;4.284;2022-09-24T02:04:14;15.90;99.90
18998;DHT22;9632;51.018;4.284;2022-09-24T02:06:50;15.90;99.90
18998;DHT22;9632;51.018;4.284;2022-09-24T02:09:32;15.90;99.90
18998;DHT22;9632;51.018;4.284;2022-09-24T02:12:22;15.80;99.90
18998;DHT22;9632;51.018;4.284;2022-09-24T02:14:53;15.90;99.90
18998;DHT22;9632;51.018;4.284;2022-09-24T02:17:23;15.90;99.90
18998;DHT22;9632;51.018;4.284;2022-09-24T02:19:51;15.90;99.90
18998;DHT22;9632;51.018;4.284;2022-09-24T02:22:18;15.80;99.90
18998;DHT22;9632;51.018;4.284;2022-09-24T02:24:47;15.80;99.90
18998;DHT22;9632;51.018;4.284;2022-09-24T02:27:14;15.80;99.90
18998;DHT22;9632;51.018;4.284;2022-09-24T02:29:40;15.80;99.90
18998;DHT22;9632;51.018;4.284;2022-09-24T02:32:08;15.80;99.90
18998;DHT22;9632;51.018;4.284;2022-09-24T02:34:44;15.80;99.90
18998;DHT22;9632;51.018;4.284;2022-09-24T02:37:13;15.80;99.90
18998;DHT22;9632;51.018;4.284;2022-09-24T02:39:39;15.80;99.90
18998;DHT22;9632;51.018;4.284;2022-09-24T02:42:06;15.70;99.90
18998;DHT22;9632;51.018;4.284;2022-09-24T02:44:33;15.70;99.90
18998;DHT22;9632;51.018;4.284;2022-09-24T02:47:00;15.60;99.90
18998;DHT22;9632;51.018;4.284;2022-09-24T02:49:26;15.60;99.90
18998;DHT22;9632;51.018;4.284;2022-09-24T02:51:52;15.60;99.90
18998;DHT22;9632;51.018;4.284;2022-09-24T02:54:18;15.60;99.90
18998;DHT22;9632;51.018;4.284;2022-09-24T02:56:44;15.60;99.90
18998;DHT22;9632;51.018;4.284;2022-09-24T02:59:09;15.50;99.90
18998;DHT22;9632;51.018;4.284;2022-09-24T03:01:36;15.40;99.90
18998;DHT22;9632;51.018;4.284;2022-09-24T03:04:02;15.30;99.90
18998;DHT22;9632;51.018;4.284;2022-09-24T03:06:28;15.40;99.90
18998;DHT22;9632;51.018;4.284;2022-09-24T03:08:54;15.50;99.90
18998;DHT22;9632;51.018;4.284;2022-09-24T03:11:21;15.60;99.90
18998;DHT22;9632;51.018;4.284;2022-09-24T03:13:47;15.60;99.90
18998;DHT22;9632;51.018;4.284;2022-09-24T03:16:14;15.60;99.90
18998;DHT22;9632;51.018;4.284;2022-09-24T03:18:40;15.60;99.90
18998;DHT22;9632;51.018;4.284;2022-09-24T03:21:08;15.60;99.90
18998;DHT22;9632;51.018;4.284;2022-09-24T03:23:35;15.60;99.90
18998;DHT22;9632;51.018;4.284;2022-09-24T03:26:01;15.70;99.90
18998;DHT22;9632;51.018;4.284;2022-09-24T03:28:27;15.60;99.90
18998;DHT22;9632;51.018;4.284;2022-09-24T03:30:52;15.60;99.90
18998;DHT22;9632;51.018;4.284;2022-09-24T03:36:23;15.60;99.90
18998;DHT22;9632;51.018;4.284;2022-09-24T03:38:52;15.60;99.90
18998;DHT22;9632;51.018;4.284;2022-09-24T03:41:25;15.60;99.90
18998;DHT22;9632;51.018;4.284;2022-09-24T03:43:52;15.60;99.90
18998;DHT22;9632;51.018;4.284;2022-09-24T03:46:17;15.70;99.90
18998;DHT22;9632;51.018;4.284;2022-09-24T03:48:43;15.70;99.90
18998;DHT22;9632;51.018;4.284;2022-09-24T03:51:14;15.60;99.90
18998;DHT22;9632;51.018;4.284;2022-09-24T03:53:40;15.60;99.90
18998;DHT22;9632;51.018;4.284;2022-09-24T03:56:07;15.70;99.90
18998;DHT22;9632;51.018;4.284;2022-09-24T03:58:34;15.60;99.90
18998;DHT22;9632;51.018;4.284;2022-09-24T04:01:07;15.60;99.90
18998;DHT22;9632;51.018;4.284;2022-09-24T04:03:34;15.50;99.90
18998;DHT22;9632;51.018;4.284;2022-09-24T04:06:00;15.50;99.90
18998;DHT22;9632;51.018;4.284;2022-09-24T04:08:26;15.60;99.90
18998;DHT22;9632;51.018;4.284;2022-09-24T04:10:52;15.60;99.90
18998;DHT22;9632;51.018;4.284;2022-09-24T04:13:19;15.60;99.90
18998;DHT22;9632;51.018;4.284;2022-09-24T04:15:45;15.60;99.90
18998;DHT22;9632;51.018;4.284;2022-09-24T04:18:12;15.60;99.90
18998;DHT22;9632;51.018;4.284;2022-09-24T04:20:38;15.70;99.90
18998;DHT22;9632;51.018;4.284;2022-09-24T04:23:04;15.60;99.90
18998;DHT22;9632;51.018;4.284;2022-09-24T04:25:30;15.60;99.90
18998;DHT22;9632;51.018;4.284;2022-09-24T04:27:59;15.50;99.90
18998;DHT22;9632;51.018;4.284;2022-09-24T04:30:27;15.50;99.90
18998;DHT22;9632;51.018;4.284;2022-09-24T04:32:53;15.50;99.90
18998;DHT22;9632;51.018;4.284;2022-09-24T04:35:21;15.50;99.90
18998;DHT22;9632;51.018;4.284;2022-09-24T04:37:47;15.40;99.90
18998;DHT22;9632;51.018;4.284;2022-09-24T04:40:14;15.50;99.90
18998;DHT22;9632;51.018;4.284;2022-09-24T04:42:41;15.50;99.90
18998;DHT22;9632;51.018;4.284;2022-09-24T04:45:08;15.50;99.90
18998;DHT22;9632;51.018;4.284;2022-09-24T04:47:35;15.50;99.90
18998;DHT22;9632;51.018;4.284;2022-09-24T04:50:02;15.50;99.90
18998;DHT22;9632;51.018;4.284;2022-09-24T04:52:29;15.50;99.90
18998;DHT22;9632;51.018;4.284;2022-09-24T04:54:58;15.50;99.90
18998;DHT22;9632;51.018;4.284;2022-09-24T04:57:25;15.60;99.90
18998;DHT22;9632;51.018;4.284;2022-09-24T04:59:51;15.60;99.90
18998;DHT22;9632;51.018;4.284;2022-09-24T05:02:17;15.60;99.90
18998;DHT22;9632;51.018;4.284;2022-09-24T05:04:43;15.60;99.90
18998;DHT22;9632;51.018;4.284;2022-09-24T05:07:10;15.50;99.90
18998;DHT22;9632;51.018;4.284;2022-09-24T05:09:36;15.50;99.90
18998;DHT22;9632;51.018;4.284;2022-09-24T05:12:02;15.50;99.90
18998;DHT22;9632;51.018;4.284;2022-09-24T05:14:28;15.50;99.90
18998;DHT22;9632;51.018;4.284;2022-09-24T05:16:54;15.50;99.90
18998;DHT22;9632;51.018;4.284;2022-09-24T05:19:20;15.50;99.90
18998;DHT22;9632;51.018;4.284;2022-09-24T05:21:46;15.50;99.90
18998;DHT22;9632;51.018;4.284;2022-09-24T05:24:13;15.50;99.90
18998;DHT22;9632;51.018;4.284;2022-09-24T05:26:39;15.60;99.90
18998;DHT22;9632;51.018;4.284;2022-09-24T05:29:24;15.60;99.90
18998;DHT22;9632;51.018;4.284;2022-09-24T05:31:49;15.60;99.90
18998;DHT22;9632;51.018;4.284;2022-09-24T05:34:15;15.60;99.90
18998;DHT22;9632;51.018;4.284;2022-09-24T05:36:41;15.70;99.90
18998;DHT22;9632;51.018;4.284;2022-09-24T05:39:11;15.60;99.90
18998;DHT22;9632;51.018;4.284;2022-09-24T05:41:38;15.50;99.90
18998;DHT22;9632;51.018;4.284;2022-09-24T05:44:04;15.50;99.90
18998;DHT22;9632;51.018;4.284;2022-09-24T05:46:30;15.40;99.90
18998;DHT22;9632;51.018;4.284;2022-09-24T05:48:57;15.40;99.90
18998;DHT22;9632;51.018;4.284;2022-09-24T05:51:23;15.40;99.90
18998;DHT22;9632;51.018;4.284;2022-09-24T05:53:49;15.40;99.90
18998;DHT22;9632;51.018;4.284;2022-09-24T05:56:15;15.40;99.90
18998;DHT22;9632;51.018;4.284;2022-09-24T05:58:41;15.40;99.90
18998;DHT22;9632;51.018;4.284;2022-09-24T06:01:06;15.40;99.90
18998;DHT22;9632;51.018;4.284;2022-09-24T06:03:32;15.30;99.90
18998;DHT22;9632;51.018;4.284;2022-09-24T06:05:58;15.40;99.90
18998;DHT22;9632;51.018;4.284;2022-09-24T06:08:27;15.40;99.90
18998;DHT22;9632;51.018;4.284;2022-09-24T06:11:00;15.40;99.90
18998;DHT22;9632;51.018;4.284;2022-09-24T06:13:27;15.40;99.90
18998;DHT22;9632;51.018;4.284;2022-09-24T06:16:00;15.30;99.90
18998;DHT22;9632;51.018;4.284;2022-09-24T06:18:26;15.30;99.90
18998;DHT22;9632;51.018;4.284;2022-09-24T06:20:51;15.30;99.90
18998;DHT22;9632;51.018;4.284;2022-09-24T06:23:17;15.30;99.90
18998;DHT22;9632;51.018;4.284;2022-09-24T06:25:42;15.30;99.90
18998;DHT22;9632;51.018;4.284;2022-09-24T06:28:13;15.30;99.90
18998;DHT22;9632;51.018;4.284;2022-09-24T06:30:39;15.40;99.90
18998;DHT22;9632;51.018;4.284;2022-09-24T06:33:10;15.40;99.90
18998;DHT22;9632;51.018;4.284;2022-09-24T06:35:38;15.40;99.90
18998;DHT22;9632;51.018;4.284;2022-09-24T06:38:05;15.40;99.90
18998;DHT22;9632;51.018;4.284;2022-09-24T06:40:31;15.40;99.90
18998;DHT22;9632;51.018;4.284;2022-09-24T06:42:57;15.40;99.90
18998;DHT22;9632;51.018;4.284;2022-09-24T06:45:24;15.50;99.90
18998;DHT22;9632;51.018;4.284;2022-09-24T06:47:55;15.50;99.90
18998;DHT22;9632;51.018;4.284;2022-09-24T06:50:21;15.50;99.90
18998;DHT22;9632;51.018;4.284;2022-09-24T06:52:47;15.50;99.90
18998;DHT22;9632;51.018;4.284;2022-09-24T06:55:14;15.50;99.90
18998;DHT22;9632;51.018;4.284;2022-09-24T06:57:40;15.50;99.90
18998;DHT22;9632;51.018;4.284;2022-09-24T07:00:06;15.50;99.90
18998;DHT22;9632;51.018;4.284;2022-09-24T07:02:32;15.60;99.90
18998;DHT22;9632;51.018;4.284;2022-09-24T07:04:57;15.50;99.90
18998;DHT22;9632;51.018;4.284;2022-09-24T07:07:23;15.50;99.90
18998;DHT22;9632;51.018;4.284;2022-09-24T07:09:55;15.40;99.90
18998;DHT22;9632;51.018;4.284;2022-09-24T07:12:21;15.50;99.90
18998;DHT22;9632;51.018;4.284;2022-09-24T07:14:47;15.50;99.90
18998;DHT22;9632;51.018;4.284;2022-09-24T07:17:13;15.50;99.90
18998;DHT22;9632;51.018;4.284;2022-09-24T07:19:38;15.40;99.90
18998;DHT22;9632;51.018;4.284;2022-09-24T07:22:05;15.40;99.90
18998;DHT22;9632;51.018;4.284;2022-09-24T07:24:30;15.40;99.90
18998;DHT22;9632;51.018;4.284;2022-09-24T07:26:56;15.40;99.90
18998;DHT22;9632;51.018;4.284;2022-09-24T07:29:22;15.50;99.90
18998;DHT22;9632;51.018;4.284;2022-09-24T07:31:47;15.50;99.90
18998;DHT22;9632;51.018;4.284;2022-09-24T07:34:13;15.60;99.90
18998;DHT22;9632;51.018;4.284;2022-09-24T07:36:40;15.60;99.90
18998;DHT22;9632;51.018;4.284;2022-09-24T07:39:06;15.60;99.90
18998;DHT22;9632;51.018;4.284;2022-09-24T07:41:31;15.60;99.90
18998;DHT22;9632;51.018;4.284;2022-09-24T07:43:58;15.70;99.90
18998;DHT22;9632;51.018;4.284;2022-09-24T07:46:24;15.70;99.90
18998;DHT22;9632;51.018;4.284;2022-09-24T07:48:54;15.80;99.90
18998;DHT22;9632;51.018;4.284;2022-09-24T07:51:24;15.90;99.90
18998;DHT22;9632;51.018;4.284;2022-09-24T07:53:50;15.90;99.90
18998;DHT22;9632;51.018;4.284;2022-09-24T07:56:16;16.00;99.90
18998;DHT22;9632;51.018;4.284;2022-09-24T07:58:42;15.90;99.90
18998;DHT22;9632;51.018;4.284;2022-09-24T08:01:07;15.90;99.90
18998;DHT22;9632;51.018;4.284;2022-09-24T08:03:33;15.90;99.90
18998;DHT22;9632;51.018;4.284;2022-09-24T08:05:58;15.90;99.90
18998;DHT22;9632;51.018;4.284;2022-09-24T08:08:26;15.90;99.90
18998;DHT22;9632;51.018;4.284;2022-09-24T08:10:52;15.90;99.90
18998;DHT22;9632;51.018;4.284;2022-09-24T08:13:18;16.00;99.90
18998;DHT22;9632;51.018;4.284;2022-09-24T08:15:44;15.90;99.90
18998;DHT22;9632;51.018;4.284;2022-09-24T08:18:09;15.90;99.90
18998;DHT22;9632;51.018;4.284;2022-09-24T08:20:38;15.90;99.90
18998;DHT22;9632;51.018;4.284;2022-09-24T08:23:06;15.70;99.90
18998;DHT22;9632;51.018;4.284;2022-09-24T08:25:34;15.70;99.90
18998;DHT22;9632;51.018;4.284;2022-09-24T08:28:01;15.70;99.90
18998;DHT22;9632;51.018;4.284;2022-09-24T08:30:27;15.80;99.90
18998;DHT22;9632;51.018;4.284;2022-09-24T08:32:52;15.70;99.90
18998;DHT22;9632;51.018;4.284;2022-09-24T08:35:18;15.60;99.90
18998;DHT22;9632;51.018;4.284;2022-09-24T08:37:43;15.60;99.90
18998;DHT22;9632;51.018;4.284;2022-09-24T08:40:16;15.60;99.90
18998;DHT22;9632;51.018;4.284;2022-09-24T08:43:00;15.60;99.90
18998;DHT22;9632;51.018;4.284;2022-09-24T08:45:32;15.70;99.90
18998;DHT22;9632;51.018;4.284;2022-09-24T08:48:20;15.70;99.90
18998;DHT22;9632;51.018;4.284;2022-09-24T08:50:51;15.80;99.90
18998;DHT22;9632;51.018;4.284;2022-09-24T08:53:49;15.70;99.90
18998;DHT22;9632;51.018;4.284;2022-09-24T08:56:25;15.80;99.90
18998;DHT22;9632;51.018;4.284;2022-09-24T08:58:53;15.80;99.90
18998;DHT22;9632;51.018;4.284;2022-09-24T09:04:03;15.80;99.90
18998;DHT22;9632;51.018;4.284;2022-09-24T09:09:13;15.90;99.90
18998;DHT22;9632;51.018;4.284;2022-09-24T09:11:43;16.00;99.90
18998;DHT22;9632;51.018;4.284;2022-09-24T09:19:08;15.90;99.90
18998;DHT22;9632;51.018;4.284;2022-09-24T09:21:41;16.00;99.90
18998;DHT22;9632;51.018;4.284;2022-09-24T09:24:24;16.00;99.90
18998;DHT22;9632;51.018;4.284;2022-09-24T09:26:54;16.00;99.90
18998;DHT22;9632;51.018;4.284;2022-09-24T09:29:22;16.00;99.90
18998;DHT22;9632;51.018;4.284;2022-09-24T09:34:19;16.00;99.90
18998;DHT22;9632;51.018;4.284;2022-09-24T09:37:06;16.00;99.90
18998;DHT22;9632;51.018;4.284;2022-09-24T09:39:55;16.00;99.90
18998;DHT22;9632;51.018;4.284;2022-09-24T09:42:32;16.10;99.90
18998;DHT22;9632;51.018;4.284;2022-09-24T09:45:02;16.10;99.90
18998;DHT22;9632;51.018;4.284;2022-09-24T09:47:40;16.20;99.90
18998;DHT22;9632;51.018;4.284;2022-09-24T09:52:51;16.10;99.90
18998;DHT22;9632;51.018;4.284;2022-09-24T09:55:25;16.00;99.90
18998;DHT22;9632;51.018;4.284;2022-09-24T09:57:52;16.00;99.90
18998;DHT22;9632;51.018;4.284;2022-09-24T10:00:27;16.10;99.90
18998;DHT22;9632;51.018;4.284;2022-09-24T10:02:56;16.00;99.90
18998;DHT22;9632;51.018;4.284;2022-09-24T10:05:22;16.10;99.90
18998;DHT22;9632;51.018;4.284;2022-09-24T10:07:55;16.00;99.90
18998;DHT22;9632;51.018;4.284;2022-09-24T10:10:26;16.10;99.90
18998;DHT22;9632;51.018;4.284;2022-09-24T10:15:33;16.10;99.90
18998;DHT22;9632;51.018;4.284;2022-09-24T10:17:59;16.10;99.90
18998;DHT22;9632;51.018;4.284;2022-09-24T10:20:27;15.90;99.90
18998;DHT22;9632;51.018;4.284;2022-09-24T10:23:05;16.00;99.90
18998;DHT22;9632;51.018;4.284;2022-09-24T10:25:32;16.00;99.90
18998;DHT22;9632;51.018;4.284;2022-09-24T10:28:06;16.10;99.90
18998;DHT22;9632;51.018;4.284;2022-09-24T10:30:57;16.10;99.90
18998;DHT22;9632;51.018;4.284;2022-09-24T10:33:24;16.10;99.90
18998;DHT22;9632;51.018;4.284;2022-09-24T10:35:50;16.10;99.90
18998;DHT22;9632;51.018;4.284;2022-09-24T10:38:19;16.10;99.90
18998;DHT22;9632;51.018;4.284;2022-09-24T10:40:46;16.10;99.90
18998;DHT22;9632;51.018;4.284;2022-09-24T10:43:20;16.10;99.90
18998;DHT22;9632;51.018;4.284;2022-09-24T10:48:43;16.10;99.90
18998;DHT22;9632;51.018;4.284;2022-09-24T11:05:23;16.20;99.90
18998;DHT22;9632;51.018;4.284;2022-09-24T11:08:03;16.20;99.90
18998;DHT22;9632;51.018;4.284;2022-09-24T11:19:00;16.30;99.90
18998;DHT22;9632;51.018;4.284;2022-09-24T11:27:30;16.30;99.90
18998;DHT22;9632;51.018;4.284;2022-09-24T11:30:12;16.30;99.90
18998;DHT22;9632;51.018;4.284;2022-09-24T11:38:14;16.30;99.90
18998;DHT22;9632;51.018;4.284;2022-09-24T11:40:57;16.30;99.90
18998;DHT22;9632;51.018;4.284;2022-09-24T11:46:52;16.30;99.90
18998;DHT22;9632;51.018;4.284;2022-09-24T11:49:31;16.40;99.90
18998;DHT22;9632;51.018;4.284;2022-09-24T11:54:56;16.40;99.90
18998;DHT22;9632;51.018;4.284;2022-09-24T11:57:34;16.40;99.90
18998;DHT22;9632;51.018;4.284;2022-09-24T12:00:11;16.40;99.90
18998;DHT22;9632;51.018;4.284;2022-09-24T12:02:50;16.50;99.90
18998;DHT22;9632;51.018;4.284;2022-09-24T12:05:27;16.50;99.90
18998;DHT22;9632;51.018;4.284;2022-09-24T12:08:01;16.50;99.90
18998;DHT22;9632;51.018;4.284;2022-09-24T12:10:37;16.50;99.90
18998;DHT22;9632;51.018;4.284;2022-09-24T12:13:19;16.50;99.90
18998;DHT22;9632;51.018;4.284;2022-09-24T12:15:54;16.60;99.90
18998;DHT22;9632;51.018;4.284;2022-09-24T12:18:34;16.60;99.90
18998;DHT22;9632;51.018;4.284;2022-09-24T12:21:08;16.60;99.90
18998;DHT22;9632;51.018;4.284;2022-09-24T12:23:39;16.70;99.90
18998;DHT22;9632;51.018;4.284;2022-09-24T12:26:08;16.80;99.90
18998;DHT22;9632;51.018;4.284;2022-09-24T12:28:44;16.80;99.90
18998;DHT22;9632;51.018;4.284;2022-09-24T12:37:13;16.90;99.90
18998;DHT22;9632;51.018;4.284;2022-09-24T12:42:36;17.00;99.90
18998;DHT22;9632;51.018;4.284;2022-09-24T12:45:04;17.10;99.90
18998;DHT22;9632;51.018;4.284;2022-09-24T12:47:32;17.10;99.90
18998;DHT22;9632;51.018;4.284;2022-09-24T12:50:04;17.10;99.90
18998;DHT22;9632;51.018;4.284;2022-09-24T12:52:41;17.10;99.90
18998;DHT22;9632;51.018;4.284;2022-09-24T12:55:27;17.10;99.90
18998;DHT22;9632;51.018;4.284;2022-09-24T13:01:03;17.10;99.90
18998;DHT22;9632;51.018;4.284;2022-09-24T13:03:36;17.20;99.90
18998;DHT22;9632;51.018;4.284;2022-09-24T13:06:38;17.20;99.90
18998;DHT22;9632;51.018;4.284;2022-09-24T13:12:49;17.20;99.90
18998;DHT22;9632;51.018;4.284;2022-09-24T13:15:01;17.10;99.90
18998;DHT22;9632;51.018;4.284;2022-09-24T13:17:30;17.20;99.90
18998;DHT22;9632;51.018;4.284;2022-09-24T13:20:05;17.20;99.90
18998;DHT22;9632;51.018;4.284;2022-09-24T13:22:35;17.20;99.90
18998;DHT22;9632;51.018;4.284;2022-09-24T13:25:22;17.20;99.90
18998;DHT22;9632;51.018;4.284;2022-09-24T13:28:00;17.30;99.90
18998;DHT22;9632;51.018;4.284;2022-09-24T13:33:21;17.30;99.90
18998;DHT22;9632;51.018;4.284;2022-09-24T13:36:12;17.30;99.90
18998;DHT22;9632;51.018;4.284;2022-09-24T13:44:10;17.30;99.90
18998;DHT22;9632;51.018;4.284;2022-09-24T13:46:40;17.30;99.90
18998;DHT22;9632;51.018;4.284;2022-09-24T13:49:16;17.30;99.90
18998;DHT22;9632;51.018;4.284;2022-09-24T13:51:45;17.30;99.90
18998;DHT22;9632;51.018;4.284;2022-09-24T13:54:54;17.30;99.90
18998;DHT22;9632;51.018;4.284;2022-09-24T13:57:22;17.40;99.90
18998;DHT22;9632;51.018;4.284;2022-09-24T13:59:48;17.40;99.90
18998;DHT22;9632;51.018;4.284;2022-09-24T14:02:25;17.40;99.90
18998;DHT22;9632;51.018;4.284;2022-09-24T14:04:58;17.40;99.90
18998;DHT22;9632;51.018;4.284;2022-09-24T14:07:25;17.40;99.90
18998;DHT22;9632;51.018;4.284;2022-09-24T14:10:05;17.50;99.90
18998;DHT22;9632;51.018;4.284;2022-09-24T14:12:31;17.50;99.90
18998;DHT22;9632;51.018;4.284;2022-09-24T14:14:57;17.40;99.90
18998;DHT22;9632;51.018;4.284;2022-09-24T14:17:24;17.40;99.90
18998;DHT22;9632;51.018;4.284;2022-09-24T14:19:56;17.40;99.90
18998;DHT22;9632;51.018;4.284;2022-09-24T14:22:29;17.30;99.90
18998;DHT22;9632;51.018;4.284;2022-09-24T14:25:01;17.30;99.90
18998;DHT22;9632;51.018;4.284;2022-09-24T14:27:30;17.30;99.90
18998;DHT22;9632;51.018;4.284;2022-09-24T14:30:05;17.30;99.90
18998;DHT22;9632;51.018;4.284;2022-09-24T14:32:34;17.30;99.90
18998;DHT22;9632;51.018;4.284;2022-09-24T14:35:14;17.30;99.90
18998;DHT22;9632;51.018;4.284;2022-09-24T14:37:48;17.30;99.90
18998;DHT22;9632;51.018;4.284;2022-09-24T14:40:17;17.20;99.90
18998;DHT22;9632;51.018;4.284;2022-09-24T14:42:46;17.20;99.90
18998;DHT22;9632;51.018;4.284;2022-09-24T14:45:22;17.20;99.90
18998;DHT22;9632;51.018;4.284;2022-09-24T14:48:00;17.20;99.90
18998;DHT22;9632;51.018;4.284;2022-09-24T14:50:31;17.10;99.90
18998;DHT22;9632;51.018;4.284;2022-09-24T14:53:00;17.00;99.90
18998;DHT22;9632;51.018;4.284;2022-09-24T14:55:55;16.90;99.90
18998;DHT22;9632;51.018;4.284;2022-09-24T14:58:39;16.90;99.90
18998;DHT22;9632;51.018;4.284;2022-09-24T15:01:16;16.90;99.90
18998;DHT22;9632;51.018;4.284;2022-09-24T15:03:49;16.80;99.90
18998;DHT22;9632;51.018;4.284;2022-09-24T15:06:23;16.60;99.90
18998;DHT22;9632;51.018;4.284;2022-09-24T15:09:04;16.50;99.90
18998;DHT22;9632;51.018;4.284;2022-09-24T15:11:33;16.60;99.90
18998;DHT22;9632;51.018;4.284;2022-09-24T15:14:16;16.50;99.90
18998;DHT22;9632;51.018;4.284;2022-09-24T15:16:45;16.40;99.90
18998;DHT22;9632;51.018;4.284;2022-09-24T15:19:23;16.40;99.90
18998;DHT22;9632;51.018;4.284;2022-09-24T15:21:51;16.40;99.90
18998;DHT22;9632;51.018;4.284;2022-09-24T15:24:18;16.40;99.90
18998;DHT22;9632;51.018;4.284;2022-09-24T15:26:47;16.40;99.90
18998;DHT22;9632;51.018;4.284;2022-09-24T15:29:20;16.40;99.90
18998;DHT22;9632;51.018;4.284;2022-09-24T15:31:49;16.30;99.90
18998;DHT22;9632;51.018;4.284;2022-09-24T15:34:15;16.30;99.90
18998;DHT22;9632;51.018;4.284;2022-09-24T15:36:40;16.30;99.90
18998;DHT22;9632;51.018;4.284;2022-09-24T15:39:06;16.10;99.90
18998;DHT22;9632;51.018;4.284;2022-09-24T15:41:34;16.00;99.90
18998;DHT22;9632;51.018;4.284;2022-09-24T15:44:00;16.00;99.90
18998;DHT22;9632;51.018;4.284;2022-09-24T15:46:26;15.90;99.90
18998;DHT22;9632;51.018;4.284;2022-09-24T15:48:52;15.90;99.90
18998;DHT22;9632;51.018;4.284;2022-09-24T15:51:20;16.00;99.90
18998;DHT22;9632;51.018;4.284;2022-09-24T15:53:46;16.00;99.90
18998;DHT22;9632;51.018;4.284;2022-09-24T15:56:12;16.00;99.90
18998;DHT22;9632;51.018;4.284;2022-09-24T15:58:38;16.00;99.90
18998;DHT22;9632;51.018;4.284;2022-09-24T16:01:04;16.00;99.90
18998;DHT22;9632;51.018;4.284;2022-09-24T16:03:31;15.90;99.90
18998;DHT22;9632;51.018;4.284;2022-09-24T16:05:58;15.90;99.90
18998;DHT22;9632;51.018;4.284;2022-09-24T16:08:25;15.90;99.90
18998;DHT22;9632;51.018;4.284;2022-09-24T16:10:51;15.80;99.90
18998;DHT22;9632;51.018;4.284;2022-09-24T16:13:17;15.70;99.90
18998;DHT22;9632;51.018;4.284;2022-09-24T16:15:44;15.70;99.90
18998;DHT22;9632;51.018;4.284;2022-09-24T16:18:15;15.60;99.90
18998;DHT22;9632;51.018;4.284;2022-09-24T16:20:41;15.70;99.90
18998;DHT22;9632;51.018;4.284;2022-09-24T16:23:15;15.70;99.90
18998;DHT22;9632;51.018;4.284;2022-09-24T16:25:52;15.60;99.90
18998;DHT22;9632;51.018;4.284;2022-09-24T16:28:18;15.60;99.90
18998;DHT22;9632;51.018;4.284;2022-09-24T16:30:43;15.50;99.90
18998;DHT22;9632;51.018;4.284;2022-09-24T16:33:09;15.60;99.90
18998;DHT22;9632;51.018;4.284;2022-09-24T16:35:35;15.40;99.90
18998;DHT22;9632;51.018;4.284;2022-09-24T16:38:00;15.40;99.90
18998;DHT22;9632;51.018;4.284;2022-09-24T16:40:26;15.30;99.90
18998;DHT22;9632;51.018;4.284;2022-09-24T16:42:52;15.40;99.90
18998;DHT22;9632;51.018;4.284;2022-09-24T16:45:17;15.40;99.90
18998;DHT22;9632;51.018;4.284;2022-09-24T16:47:44;15.40;99.90
18998;DHT22;9632;51.018;4.284;2022-09-24T16:50:09;15.50;99.90
18998;DHT22;9632;51.018;4.284;2022-09-24T16:52:35;15.50;99.90
18998;DHT22;9632;51.018;4.284;2022-09-24T16:55:00;15.60;99.90
18998;DHT22;9632;51.018;4.284;2022-09-24T16:57:26;15.60;99.90
18998;DHT22;9632;51.018;4.284;2022-09-24T16:59:52;15.60;99.90
18998;DHT22;9632;51.018;4.284;2022-09-24T17:02:17;15.60;99.90
18998;DHT22;9632;51.018;4.284;2022-09-24T17:04:44;15.50;99.90
18998;DHT22;9632;51.018;4.284;2022-09-24T17:07:10;15.50;99.90
18998;DHT22;9632;51.018;4.284;2022-09-24T17:09:37;15.50;99.90
18998;DHT22;9632;51.018;4.284;2022-09-24T17:12:22;15.50;99.90
18998;DHT22;9632;51.018;4.284;2022-09-24T17:14:47;15.50;99.90
18998;DHT22;9632;51.018;4.284;2022-09-24T17:17:13;15.40;99.90
18998;DHT22;9632;51.018;4.284;2022-09-24T17:19:39;15.50;99.90
18998;DHT22;9632;51.018;4.284;2022-09-24T17:22:04;15.50;99.90
18998;DHT22;9632;51.018;4.284;2022-09-24T17:24:30;15.60;99.90
18998;DHT22;9632;51.018;4.284;2022-09-24T17:26:58;15.50;99.90
18998;DHT22;9632;51.018;4.284;2022-09-24T17:29:23;15.50;99.90
18998;DHT22;9632;51.018;4.284;2022-09-24T17:31:49;15.50;99.90
18998;DHT22;9632;51.018;4.284;2022-09-24T17:34:15;15.50;99.90
18998;DHT22;9632;51.018;4.284;2022-09-24T17:36:41;15.60;99.90
18998;DHT22;9632;51.018;4.284;2022-09-24T17:39:07;15.60;99.90
18998;DHT22;9632;51.018;4.284;2022-09-24T17:41:33;15.50;99.90
18998;DHT22;9632;51.018;4.284;2022-09-24T17:43:59;15.50;99.90
18998;DHT22;9632;51.018;4.284;2022-09-24T17:46:27;15.50;99.90